Time;durP1;ratioP1;P1;durP2;ratioP2;P2;SDS_P1;SDS_P2;PMS_P1;PMS_P2;Temp;Humidity;BMP_temperature;BMP_pressure;BME280_temperature;BME280_humidity;BME280_pressure;Samples;Min_cycle;Max_cycle;Signal;HPM_P1;HPM_P2
2022/04/17 00:01:56;;;;;;;11.13;7.18;;;;;;;10.77;38.13;102908.84;5054687;28;20029;-59
2022/04/17 00:04:22;;;;;;;11.60;7.35;;;;;;;10.79;37.43;102908.91;5054126;28;20485;-59
2022/04/17 00:06:48;;;;;;;12.43;7.22;;;;;;;10.80;37.54;102904.56;5053795;28;20029;-59
2022/04/17 00:09:13;;;;;;;11.48;7.30;;;;;;;10.81;37.39;102901.06;5054311;28;20438;-59
2022/04/17 00:11:41;;;;;;;10.75;7.25;;;;;;;10.81;37.60;102901.06;5054039;28;20107;-59
2022/04/17 00:14:07;;;;;;;10.90;7.00;;;;;;;10.81;37.19;102904.63;5054322;28;20028;-63
2022/04/17 00:16:32;;;;;;;11.15;6.18;;;;;;;10.80;39.47;102904.56;5053894;28;20486;-62
2022/04/17 00:18:58;;;;;;;9.40;6.32;;;;;;;10.77;37.08;102900.03;5054235;28;20021;-59
2022/04/17 00:21:23;;;;;;;11.13;6.60;;;;;;;10.73;37.80;102900.72;5053959;28;20029;-59
2022/04/17 00:23:49;;;;;;;11.32;6.68;;;;;;;10.69;36.96;102901.44;5036080;28;20112;-59
2022/04/17 00:26:14;;;;;;;9.32;6.15;;;;;;;10.62;38.22;102897.66;5053959;28;20382;-59
2022/04/17 00:28:39;;;;;;;10.45;6.38;;;;;;;10.63;38.11;102901.19;5053907;28;20028;-59
2022/04/17 00:31:05;;;;;;;10.77;6.45;;;;;;;10.55;37.94;102905.22;5053729;28;20029;-59
2022/04/17 00:33:31;;;;;;;9.55;6.28;;;;;;;10.58;37.56;102898.34;5053919;28;20025;-61
2022/04/17 00:35:57;;;;;;;10.27;6.28;;;;;;;10.63;37.62;102899.44;5053615;28;20032;-62
2022/04/17 00:38:22;;;;;;;12.75;6.13;;;;;;;10.61;37.42;102909.03;5053767;28;20026;-62
2022/04/17 00:40:47;;;;;;;10.93;6.10;;;;;;;10.59;36.99;102901.88;5053580;28;20090;-61
2022/04/17 00:43:30;;;;;;;9.13;6.00;;;;;;;10.57;36.98;102901.78;5053682;28;20021;-62
2022/04/17 00:45:56;;;;;;;8.63;5.82;;;;;;;10.53;37.21;102892.84;5055283;28;20025;-59
2022/04/17 00:48:22;;;;;;;10.27;5.90;;;;;;;10.37;37.49;102894.75;5055631;28;20386;-58
2022/04/17 00:50:50;;;;;;;11.68;6.35;;;;;;;10.32;37.60;102891.91;5054022;28;20493;-58
2022/04/17 00:53:16;;;;;;;10.77;6.18;;;;;;;10.30;38.19;102890.94;5053819;28;20047;-59
2022/04/17 00:55:43;;;;;;;9.10;5.47;;;;;;;10.36;39.34;102891.19;5053588;28;20462;-59
2022/04/17 00:58:14;;;;;;;9.18;5.68;;;;;;;10.30;37.47;102887.38;5053349;28;20036;-59
2022/04/17 01:00:40;;;;;;;9.13;6.10;;;;;;;10.17;37.72;102891.19;5053272;28;20029;-59
2022/04/17 01:03:06;;;;;;;10.00;5.90;;;;;;;10.19;38.10;102890.44;5053416;28;20035;-60
2022/04/17 01:05:31;;;;;;;9.57;6.05;;;;;;;10.22;38.03;102884.34;5053413;28;20020;-60
2022/04/17 01:07:58;;;;;;;10.50;6.00;;;;;;;10.14;37.67;102883.09;5053262;28;20108;-61
2022/04/17 01:10:24;;;;;;;9.57;5.95;;;;;;;10.15;38.11;102884.91;5053268;28;20021;-61
2022/04/17 01:12:52;;;;;;;9.57;6.03;;;;;;;10.17;38.47;102889.44;5053125;28;20033;-61
2022/04/17 01:15:18;;;;;;;10.25;5.95;;;;;;;10.21;38.29;102888.75;5052802;28;20087;-60
2022/04/17 01:17:43;;;;;;;8.90;5.75;;;;;;;10.22;38.17;102884.34;5053436;28;20044;-60
2022/04/17 01:20:10;;;;;;;11.45;5.95;;;;;;;10.24;37.94;102882.69;5053045;28;20031;-61
2022/04/17 01:22:35;;;;;;;9.55;6.15;;;;;;;10.22;38.10;102887.91;5052953;28;20382;-61
2022/04/17 01:27:44;;;;;;;8.80;5.55;;;;;;;10.19;38.26;102879.84;5053142;28;20140;-61
2022/04/17 01:30:10;;;;;;;7.68;5.38;;;;;;;10.14;38.24;102894.56;5053049;28;20053;-61
2022/04/17 01:32:35;;;;;;;9.48;5.80;;;;;;;10.04;38.29;102887.97;5053177;28;20086;-61
2022/04/17 01:35:01;;;;;;;9.50;5.70;;;;;;;9.97;38.72;102885.88;5053032;28;20025;-61
2022/04/17 01:37:26;;;;;;;11.15;5.82;;;;;;;9.90;38.37;102891.72;5052888;28;20025;-61
2022/04/17 01:39:51;;;;;;;10.60;5.47;;;;;;;9.88;38.67;102890.72;5052808;28;20489;-61
2022/04/17 01:42:17;;;;;;;9.55;5.63;;;;;;;9.88;38.72;102892.47;5052864;28;20036;-61
2022/04/17 01:44:44;;;;;;;12.50;5.68;;;;;;;9.75;38.94;102888.34;5052696;28;20064;-61
2022/04/17 01:47:09;;;;;;;7.57;5.43;;;;;;;9.69;38.45;102893.38;5052934;28;20028;-61
2022/04/17 01:49:35;;;;;;;7.65;5.70;;;;;;;9.69;39.28;102896.00;5052885;28;20025;-60
2022/04/17 01:52:02;;;;;;;8.25;5.88;;;;;;;9.66;39.48;102896.75;5052862;28;20029;-60
2022/04/17 01:54:28;;;;;;;8.57;5.65;;;;;;;9.67;39.83;102893.28;5052658;28;20060;-61
2022/04/17 01:56:55;;;;;;;9.88;6.05;;;;;;;9.62;40.53;102891.25;5052945;28;20052;-61
2022/04/17 01:59:22;;;;;;;9.70;5.80;;;;;;;9.62;40.19;102883.34;5052823;28;20025;-60
2022/04/17 02:01:48;;;;;;;8.88;5.93;;;;;;;9.55;41.35;102884.81;5052854;28;20096;-61
2022/04/17 02:07:36;;;;;;;11.65;5.45;;;;;;;9.28;41.46;102887.00;5052844;28;20040;-61
2022/04/17 02:10:03;;;;;;;10.93;6.35;;;;;;;9.15;42.62;102879.31;5053221;28;20497;-61
2022/04/17 02:12:29;;;;;;;8.07;5.55;;;;;;;9.10;41.88;102887.00;5054038;28;20029;-61
2022/04/17 02:14:54;;;;;;;10.75;5.95;;;;;;;9.08;42.59;102890.38;5053854;28;20057;-60
2022/04/17 02:17:20;;;;;;;9.00;6.00;;;;;;;9.07;42.20;102885.94;5053221;28;20025;-60
2022/04/17 02:19:45;;;;;;;8.93;5.68;;;;;;;8.95;42.72;102871.34;5052744;28;20021;-60
2022/04/17 02:22:10;;;;;;;9.27;5.25;;;;;;;8.94;42.63;102881.78;5052634;28;20443;-61
2022/04/17 02:24:35;;;;;;;11.13;5.82;;;;;;;8.84;42.49;102875.16;5052241;28;20090;-61
2022/04/17 02:27:02;;;;;;;10.00;5.85;;;;;;;8.84;42.35;102884.81;5052430;28;20104;-61
2022/04/17 02:29:29;;;;;;;8.70;5.88;;;;;;;8.80;44.13;102886.38;5054948;28;20025;-60
2022/04/17 02:31:54;;;;;;;10.23;6.00;;;;;;;8.74;43.60;102888.72;5056108;28;20111;-61
2022/04/17 02:34:20;;;;;;;8.63;6.05;;;;;;;8.67;44.65;102892.75;5055984;28;20434;-60
2022/04/17 02:36:46;;;;;;;9.20;5.72;;;;;;;8.69;45.08;102882.28;5056105;28;20021;-60
2022/04/17 02:39:11;;;;;;;10.65;6.25;;;;;;;8.66;45.15;102880.41;5056047;28;20382;-61
2022/04/17 02:41:36;;;;;;;8.95;5.85;;;;;;;8.68;44.52;102872.56;5055802;28;20070;-61
2022/04/17 02:44:02;;;;;;;9.02;5.93;;;;;;;8.65;45.53;102872.41;5055809;28;20017;-60
2022/04/17 02:49:12;;;;;;;8.18;5.95;;;;;;;8.48;46.24;102876.84;5055912;28;20032;-60
2022/04/17 02:51:37;;;;;;;9.95;5.80;;;;;;;8.38;46.47;102878.06;5055736;28;20432;-61
2022/04/17 02:54:03;;;;;;;9.07;6.07;;;;;;;8.26;46.05;102867.78;5055695;28;20489;-61
2022/04/17 02:56:28;;;;;;;10.23;6.05;;;;;;;8.13;47.51;102869.66;5055758;28;20100;-61
2022/04/17 02:58:54;;;;;;;8.70;6.10;;;;;;;8.01;47.60;102872.56;5055579;28;20021;-61
2022/04/17 03:06:50;;;;;;;10.25;5.85;;;;;;;7.86;47.84;102863.81;5055425;28;20048;-60
2022/04/17 03:09:16;;;;;;;9.95;6.28;;;;;;;7.89;47.79;102858.75;5055680;28;20021;-60
2022/04/17 03:11:41;;;;;;;7.90;5.85;;;;;;;7.85;48.02;102857.66;5055351;28;20104;-60
2022/04/17 03:14:06;;;;;;;8.18;5.60;;;;;;;7.77;48.50;102867.75;5055364;28;20033;-61
2022/04/17 03:16:33;;;;;;;7.97;6.07;;;;;;;7.66;49.32;102865.34;5055105;28;20045;-61
2022/04/17 03:18:58;;;;;;;10.10;6.40;;;;;;;7.55;49.50;102867.41;5055054;28;20029;-61
2022/04/17 03:21:23;;;;;;;9.15;5.68;;;;;;;7.58;48.25;102858.75;5055184;28;20040;-61
2022/04/17 03:23:49;;;;;;;9.20;5.55;;;;;;;7.66;47.96;102852.19;5055296;28;20070;-61
2022/04/17 03:26:15;;;;;;;8.50;5.57;;;;;;;7.74;49.27;102856.16;5055103;28;20459;-60
2022/04/17 03:28:40;;;;;;;9.18;5.72;;;;;;;7.75;49.54;102847.44;5055243;28;20048;-60
2022/04/17 03:31:05;;;;;;;9.23;5.60;;;;;;;7.81;49.51;102854.78;5054998;28;20524;-60
2022/04/17 03:33:31;;;;;;;8.25;5.18;;;;;;;7.86;48.96;102846.31;5054961;28;20457;-60
2022/04/17 03:35:56;;;;;;;7.95;5.45;;;;;;;7.86;48.60;102851.56;5054638;28;20021;-60
2022/04/17 03:38:21;;;;;;;7.70;5.60;;;;;;;7.86;47.46;102850.66;5055158;28;20025;-61
2022/04/17 03:40:47;;;;;;;7.53;5.07;;;;;;;7.87;47.06;102850.72;5054095;28;20061;-60
2022/04/17 03:43:13;;;;;;;7.85;5.13;;;;;;;7.86;47.43;102843.66;5054723;28;20025;-60
2022/04/17 03:45:39;;;;;;;8.45;5.20;;;;;;;7.84;47.33;102842.69;5054642;28;20398;-60
2022/04/17 03:48:05;;;;;;;10.48;5.22;;;;;;;7.82;47.07;102827.63;5054640;28;20029;-61
2022/04/17 03:50:30;;;;;;;6.72;4.80;;;;;;;7.83;46.90;102834.69;5054416;28;20481;-61
2022/04/17 03:52:56;;;;;;;8.95;5.28;;;;;;;7.75;46.91;102835.22;5054613;28;20025;-60
2022/04/17 03:55:21;;;;;;;7.60;5.00;;;;;;;7.63;47.96;102838.91;5054435;28;20033;-61
2022/04/17 03:57:47;;;;;;;8.10;4.85;;;;;;;7.53;47.77;102843.63;5054477;28;20021;-60
2022/04/17 04:00:13;;;;;;;8.95;5.13;;;;;;;7.55;48.64;102841.09;5054395;28;20100;-60
2022/04/17 04:02:40;;;;;;;9.00;5.40;;;;;;;7.39;48.87;102841.06;5054367;28;20040;-60
2022/04/17 04:05:06;;;;;;;7.70;5.10;;;;;;;7.35;48.13;102847.88;5054269;28;20029;-60
2022/04/17 04:07:31;;;;;;;8.40;4.75;;;;;;;7.29;47.85;102837.03;5036295;28;20032;-60
2022/04/17 04:09:56;;;;;;;7.43;4.95;;;;;;;7.30;48.79;102830.94;5054173;28;20100;-60
2022/04/17 04:12:21;;;;;;;7.55;5.00;;;;;;;7.25;48.30;102833.31;5054161;28;20155;-60
2022/04/17 04:14:47;;;;;;;7.10;4.72;;;;;;;7.26;49.02;102832.50;5053973;28;20047;-61
2022/04/17 04:17:12;;;;;;;8.25;4.93;;;;;;;7.23;49.49;102834.94;5054339;28;20083;-60
2022/04/17 04:19:38;;;;;;;8.95;5.00;;;;;;;7.15;50.09;102827.44;5053947;28;20052;-61
2022/04/17 04:22:04;;;;;;;9.23;5.25;;;;;;;7.10;49.69;102834.16;5054149;28;20071;-60
2022/04/17 04:24:31;;;;;;;8.02;4.78;;;;;;;7.06;49.67;102821.66;5054151;28;20442;-60
2022/04/17 04:29:41;;;;;;;10.15;5.20;;;;;;;7.05;49.89;102825.13;5053941;28;20039;-60
2022/04/17 04:32:07;;;;;;;8.77;5.35;;;;;;;6.99;50.40;102818.69;5053949;28;20108;-61
2022/04/17 04:34:32;;;;;;;7.03;5.18;;;;;;;7.05;50.14;102810.25;5035298;28;20032;-61
2022/04/17 04:36:58;;;;;;;10.40;5.10;;;;;;;7.01;50.29;102813.53;5052982;28;20685;-61
2022/04/17 04:39:23;;;;;;;7.40;5.05;;;;;;;6.95;50.41;102810.56;5053369;28;20023;-60
2022/04/17 04:41:49;;;;;;;6.72;4.97;;;;;;;6.85;50.90;102821.34;5053026;28;20031;-60
2022/04/17 04:44:14;;;;;;;8.90;5.20;;;;;;;6.80;51.66;102812.28;5035279;28;20095;-61
2022/04/17 04:46:39;;;;;;;9.73;5.40;;;;;;;6.72;51.50;102814.47;5052899;28;20025;-61
2022/04/17 04:52:03;;;;;;;10.57;6.00;;;;;;;6.67;50.95;102819.47;4992340;28;20115;-61
2022/04/17 04:54:30;;;;;;;9.20;5.57;;;;;;;6.66;49.84;102816.75;4992853;28;20038;-60
2022/04/17 04:56:56;;;;;;;8.57;5.00;;;;;;;6.60;51.36;102804.19;4992250;28;20038;-60
2022/04/17 04:59:22;;;;;;;8.88;5.38;;;;;;;6.61;51.09;102803.34;4991860;28;20464;-60
2022/04/17 05:01:48;;;;;;;8.00;5.28;;;;;;;6.65;50.47;102809.69;4991567;28;20046;-60
2022/04/17 05:04:15;;;;;;;8.43;5.00;;;;;;;6.64;50.41;102806.19;4991350;28;20512;-61
2022/04/17 05:06:41;;;;;;;8.13;4.90;;;;;;;6.68;49.92;102808.16;4991520;28;20108;-60
2022/04/17 05:09:07;;;;;;;10.25;5.68;;;;;;;6.77;50.64;102816.56;4991292;28;20066;-60
2022/04/17 05:11:33;;;;;;;7.57;5.20;;;;;;;6.88;50.63;102809.28;4991527;28;20026;-60
2022/04/17 05:13:58;;;;;;;8.43;5.35;;;;;;;7.00;51.12;102815.25;4990989;28;20042;-60
2022/04/17 05:16:23;;;;;;;8.73;5.30;;;;;;;7.06;49.82;102813.78;4991356;28;20100;-60
2022/04/17 05:18:56;;;;;;;7.28;4.90;;;;;;;7.17;50.83;102815.31;4991048;28;20034;-60
2022/04/17 05:21:31;;;;;;;8.40;4.90;;;;;;;7.31;49.60;102814.34;4991365;28;20125;-60
2022/04/17 05:23:56;;;;;;;8.98;5.05;;;;;;;7.45;48.93;102821.28;4991287;28;20109;-60
2022/04/17 05:26:23;;;;;;;8.00;5.18;;;;;;;7.55;48.60;102820.06;4991227;28;20125;-60
2022/04/17 05:28:49;;;;;;;8.23;5.20;;;;;;;7.65;49.19;102821.47;5052099;28;20446;-60
2022/04/17 05:31:14;;;;;;;9.05;4.97;;;;;;;7.78;48.77;102822.19;5052489;28;20080;-61
2022/04/17 05:33:39;;;;;;;7.90;5.07;;;;;;;7.90;47.67;102813.16;5052275;28;20090;-60
2022/04/17 05:36:05;;;;;;;6.78;5.10;;;;;;;8.02;47.65;102809.44;5052383;28;20119;-60
2022/04/17 05:38:30;;;;;;;8.50;5.20;;;;;;;8.29;47.51;102816.97;5052451;28;20024;-60
2022/04/17 05:40:56;;;;;;;10.75;5.43;;;;;;;8.41;47.83;102819.38;5052310;28;20548;-60
2022/04/17 05:43:21;;;;;;;8.70;5.53;;;;;;;8.53;47.21;102823.53;5052328;28;20100;-60
2022/04/17 05:45:48;;;;;;;8.32;5.20;;;;;;;8.56;47.10;102821.88;5052302;28;20032;-60
2022/04/17 05:48:14;;;;;;;8.45;5.05;;;;;;;8.65;46.78;102825.91;5052237;28;20096;-61
2022/04/17 05:50:40;;;;;;;8.95;5.22;;;;;;;8.86;45.84;102823.41;5052136;28;20493;-61
2022/04/17 05:53:06;;;;;;;10.38;5.10;;;;;;;9.05;45.07;102824.31;5052495;28;20025;-60
2022/04/17 05:55:31;;;;;;;8.63;5.00;;;;;;;9.22;45.37;102808.47;5052040;28;20385;-61
2022/04/17 05:57:57;;;;;;;7.50;4.95;;;;;;;9.46;44.83;102819.28;5052469;28;20367;-60
2022/04/17 06:00:22;;;;;;;9.15;6.07;;;;;;;9.68;44.87;102818.56;5052163;28;20029;-60
2022/04/17 06:02:48;;;;;;;7.43;5.35;;;;;;;9.88;44.36;102811.50;5052221;28;20032;-61
2022/04/17 06:05:15;;;;;;;7.43;5.13;;;;;;;10.06;43.91;102818.44;5055983;28;20029;-60
2022/04/17 06:07:40;;;;;;;8.60;5.13;;;;;;;10.26;43.64;102817.63;5056186;28;20064;-60
2022/04/17 06:10:08;;;;;;;7.13;5.13;;;;;;;10.46;43.10;102814.13;5056036;28;20065;-61
2022/04/17 06:12:34;;;;;;;6.25;4.85;;;;;;;10.59;41.94;102819.94;5055741;28;20028;-61
2022/04/17 06:15:00;;;;;;;8.70;5.10;;;;;;;10.67;42.89;102816.78;5055861;28;20060;-61
2022/04/17 06:17:25;;;;;;;7.40;4.80;;;;;;;10.80;43.72;102817.28;5055684;28;20025;-61
2022/04/17 06:19:51;;;;;;;7.45;4.90;;;;;;;10.89;42.97;102807.97;5055667;28;20044;-61
2022/04/17 06:22:17;;;;;;;7.90;4.68;;;;;;;10.91;42.09;102818.63;5055890;28;20028;-61
2022/04/17 06:24:43;;;;;;;7.10;4.55;;;;;;;10.96;41.76;102812.69;5055662;28;20033;-61
2022/04/17 06:27:08;;;;;;;7.80;4.60;;;;;;;10.99;41.78;102809.25;5055850;28;20492;-60
2022/04/17 06:29:35;;;;;;;12.55;4.72;;;;;;;11.11;41.52;102799.16;5037669;28;20025;-60
2022/04/17 06:32:00;;;;;;;7.25;4.78;;;;;;;11.21;41.61;102806.63;5055711;28;20078;-61
2022/04/17 06:34:25;;;;;;;6.82;4.30;;;;;;;11.27;42.02;102804.22;5055158;28;20417;-60
2022/04/17 06:36:51;;;;;;;6.07;4.07;;;;;;;11.30;40.02;102803.44;5055557;28;20483;-60
2022/04/17 06:39:16;;;;;;;6.15;4.15;;;;;;;11.25;40.60;102800.59;5055321;28;20504;-61
2022/04/17 06:41:41;;;;;;;7.18;4.18;;;;;;;11.24;39.91;102800.56;5055438;28;20049;-60
2022/04/17 06:44:06;;;;;;;5.35;3.92;;;;;;;11.19;40.94;102799.47;5055301;28;20017;-61
2022/04/17 06:46:32;;;;;;;7.20;4.20;;;;;;;11.27;40.43;102796.28;5055276;28;20382;-61
2022/04/17 06:48:58;;;;;;;6.78;4.10;;;;;;;11.39;40.39;102797.59;5037175;28;20057;-60
2022/04/17 06:51:25;;;;;;;6.30;3.80;;;;;;;11.51;40.05;102801.63;5055091;28;20033;-61
2022/04/17 06:53:52;;;;;;;8.02;4.15;;;;;;;11.60;39.87;102793.13;5055086;28;20029;-61
2022/04/17 06:56:19;;;;;;;8.85;3.70;;;;;;;11.60;39.65;102789.56;5055222;28;20061;-60
2022/04/17 06:58:46;;;;;;;5.63;4.00;;;;;;;11.63;39.84;102797.63;5056230;28;20029;-60
2022/04/17 07:01:11;;;;;;;9.23;4.25;;;;;;;11.76;39.12;102797.25;5055190;28;20079;-60
2022/04/17 07:03:36;;;;;;;6.03;3.83;;;;;;;11.88;38.56;102795.09;5055144;28;20021;-61
2022/04/17 07:06:02;;;;;;;6.00;3.90;;;;;;;12.14;38.33;102803.97;5054937;28;20029;-60
2022/04/17 07:08:28;;;;;;;6.20;4.10;;;;;;;12.27;37.21;102795.59;5054987;28;20029;-61
2022/04/17 07:10:54;;;;;;;10.30;3.88;;;;;;;12.38;37.77;102797.75;5054975;28;20055;-60
2022/04/17 07:13:21;;;;;;;4.85;3.50;;;;;;;12.52;37.93;102809.72;5054729;28;20056;-61
2022/04/17 07:15:48;;;;;;;9.55;4.32;;;;;;;12.54;36.56;102805.34;5054390;28;20055;-61
2022/04/17 07:18:14;;;;;;;7.28;4.00;;;;;;;12.68;37.09;102793.47;5054733;28;20029;-60
2022/04/17 07:20:39;;;;;;;7.97;3.88;;;;;;;12.67;36.52;102796.06;5054514;28;20078;-61
2022/04/17 07:23:06;;;;;;;6.00;3.70;;;;;;;12.88;37.70;102794.13;5054534;28;20053;-61
2022/04/17 07:25:32;;;;;;;7.30;3.90;;;;;;;12.84;36.41;102778.94;5054568;28;20025;-60
2022/04/17 07:27:57;;;;;;;9.15;4.13;;;;;;;12.79;36.90;102784.09;5054473;28;20025;-61
2022/04/17 07:30:25;;;;;;;7.90;3.83;;;;;;;12.78;37.33;102782.31;5054624;28;20040;-61
2022/04/17 07:32:52;;;;;;;6.55;3.85;;;;;;;12.81;36.76;102784.19;5054369;28;20544;-61
2022/04/17 07:35:18;;;;;;;6.55;4.00;;;;;;;12.73;36.60;102786.56;5054033;28;20385;-61
2022/04/17 07:37:54;;;;;;;5.53;3.80;;;;;;;12.92;36.54;102772.13;5036360;28;20024;-61
2022/04/17 07:40:23;;;;;;;5.80;3.72;;;;;;;13.14;36.17;102771.06;5054352;28;20492;-61
2022/04/17 07:42:50;;;;;;;5.18;3.53;;;;;;;13.27;35.48;102773.31;5054193;28;20021;-61
2022/04/17 07:45:16;;;;;;;8.00;3.67;;;;;;;13.34;35.56;102761.09;5054221;28;20504;-61
2022/04/17 07:47:42;;;;;;;7.18;3.63;;;;;;;13.59;36.44;102768.03;5054320;28;20021;-61
2022/04/17 07:50:09;;;;;;;6.20;4.07;;;;;;;13.86;34.96;102769.69;5054086;28;20029;-61
2022/04/17 07:52:35;;;;;;;6.57;3.80;;;;;;;14.22;34.70;102761.81;5054037;28;20171;-61
2022/04/17 07:55:03;;;;;;;6.38;3.88;;;;;;;14.57;33.74;102759.19;5054103;28;20060;-61
2022/04/17 07:57:28;;;;;;;4.80;3.55;;;;;;;14.68;34.17;102768.31;5053948;28;20082;-61
2022/04/17 07:59:55;;;;;;;6.07;3.60;;;;;;;14.64;33.81;102754.03;5053892;28;20028;-61
2022/04/17 08:02:28;;;;;;;5.45;3.80;;;;;;;14.77;34.46;102755.22;5053910;28;20112;-61
2022/04/17 08:04:54;;;;;;;5.22;3.45;;;;;;;15.08;32.70;102761.31;5053578;28;20141;-61
2022/04/17 08:07:20;;;;;;;7.03;3.80;;;;;;;15.24;32.56;102755.44;5053664;28;20033;-61
2022/04/17 08:09:46;;;;;;;6.43;3.95;;;;;;;15.30;32.17;102752.03;5054083;28;20036;-61
2022/04/17 08:12:12;;;;;;;9.23;3.70;;;;;;;15.55;32.24;102748.13;5053570;28;20013;-61
2022/04/17 08:14:37;;;;;;;5.05;3.60;;;;;;;15.85;31.04;102753.22;5053424;28;20385;-61
2022/04/17 08:17:03;;;;;;;6.85;3.50;;;;;;;15.94;31.15;102754.28;5053449;28;20118;-61
2022/04/17 08:19:29;;;;;;;5.68;3.55;;;;;;;16.02;30.62;102743.75;5053424;28;20036;-61
2022/04/17 08:21:55;;;;;;;7.28;3.90;;;;;;;15.98;31.21;102736.56;5053519;28;20032;-61
2022/04/17 08:24:21;;;;;;;6.97;3.92;;;;;;;16.28;31.92;102754.91;5053571;28;20017;-61
2022/04/17 08:26:46;;;;;;;6.43;3.60;;;;;;;16.31;30.65;102746.94;5053948;28;20031;-61
2022/04/17 08:29:11;;;;;;;5.63;3.42;;;;;;;16.48;31.63;102749.88;5054593;28;20021;-61
2022/04/17 08:31:36;;;;;;;5.10;3.10;;;;;;;16.76;30.86;102743.28;5053833;28;20025;-61
2022/04/17 08:34:02;;;;;;;6.43;3.20;;;;;;;16.92;28.91;102739.06;5053276;28;20021;-61
2022/04/17 08:36:28;;;;;;;6.07;3.40;;;;;;;17.13;28.62;102741.13;5053185;28;20083;-61
2022/04/17 08:38:53;;;;;;;5.30;3.20;;;;;;;17.17;29.49;102741.22;5053103;28;20037;-61
2022/04/17 08:41:20;;;;;;;5.82;3.50;;;;;;;17.19;28.93;102736.78;5053278;28;20036;-61
2022/04/17 08:43:48;;;;;;;7.85;3.70;;;;;;;17.45;27.95;102738.91;5053037;28;20486;-61
2022/04/17 08:46:13;;;;;;;5.18;3.35;;;;;;;17.64;28.35;102742.69;5053077;28;20033;-61
2022/04/17 08:48:39;;;;;;;6.68;3.60;;;;;;;17.63;28.37;102730.19;5052813;28;20082;-62
2022/04/17 08:51:07;;;;;;;4.45;2.90;;;;;;;17.77;28.96;102732.22;5052892;28;20041;-61
2022/04/17 08:53:36;;;;;;;4.57;3.03;;;;;;;17.71;27.38;102731.19;5053089;28;20129;-61
2022/04/17 08:56:02;;;;;;;4.65;3.10;;;;;;;17.53;27.21;102726.53;5053099;28;20033;-61
2022/04/17 08:58:28;;;;;;;5.68;3.53;;;;;;;17.43;27.88;102725.53;5052817;28;20078;-61
2022/04/17 09:00:53;;;;;;;5.40;3.40;;;;;;;17.65;27.96;102734.69;5052475;28;20104;-61
2022/04/17 09:03:19;;;;;;;7.40;3.50;;;;;;;17.49;28.01;102735.38;5052547;28;20430;-61
2022/04/17 09:05:44;;;;;;;4.95;3.10;;;;;;;17.52;27.43;102714.94;5052769;28;20016;-62
2022/04/17 09:08:19;;;;;;;5.70;3.28;;;;;;;17.70;27.44;102727.63;5052718;28;20470;-62
2022/04/17 09:10:55;;;;;;;5.35;3.13;;;;;;;17.73;27.08;102718.75;5052888;28;20031;-62
2022/04/17 09:13:34;;;;;;;7.55;3.40;;;;;;;17.48;27.68;102729.16;5052840;28;20025;-62
2022/04/17 09:16:04;;;;;;;7.70;3.50;;;;;;;17.46;27.88;102712.19;5052200;28;20393;-62
2022/04/17 09:18:31;;;;;;;5.68;3.60;;;;;;;17.42;27.43;102717.47;5052588;28;20024;-62
2022/04/17 09:20:58;;;;;;;8.07;3.60;;;;;;;17.68;29.07;102720.44;5052695;28;20090;-61
2022/04/17 09:23:35;;;;;;;5.72;3.55;;;;;;;17.79;27.91;102713.50;5052729;28;20025;-61
2022/04/17 09:26:00;;;;;;;5.25;3.40;;;;;;;17.91;27.12;102713.63;5052405;28;20033;-62
2022/04/17 09:28:36;;;;;;;6.15;3.33;;;;;;;18.08;27.11;102719.16;5052416;28;20025;-62
2022/04/17 09:31:12;;;;;;;4.70;3.33;;;;;;;18.19;27.69;102708.53;5052155;28;20033;-62
2022/04/17 09:33:39;;;;;;;4.78;3.30;;;;;;;18.52;26.83;102699.88;5052226;28;20039;-62
2022/04/17 09:36:05;;;;;;;7.20;3.30;;;;;;;18.71;26.77;102701.84;5052212;28;20032;-62
2022/04/17 09:38:33;;;;;;;7.40;3.22;;;;;;;18.51;26.62;102695.44;5053479;28;20025;-62
2022/04/17 09:41:19;;;;;;;9.18;3.30;;;;;;;18.89;25.25;102698.41;5056443;28;20044;-62
2022/04/17 09:43:45;;;;;;;6.35;3.45;;;;;;;18.74;25.63;102692.94;5038517;28;20025;-62
2022/04/17 09:46:14;;;;;;;5.88;3.25;;;;;;;18.93;25.75;102694.84;5056336;28;20462;-62
2022/04/17 09:48:41;;;;;;;5.88;3.53;;;;;;;19.02;24.83;102686.84;5056206;28;20028;-62
2022/04/17 09:51:22;;;;;;;4.97;3.15;;;;;;;18.95;25.98;102686.81;5056797;28;20025;-62
2022/04/17 09:53:59;;;;;;;6.07;3.25;;;;;;;18.83;25.57;102667.97;5056448;28;20032;-62
2022/04/17 09:56:45;;;;;;;5.03;3.00;;;;;;;18.89;25.85;102678.75;5056556;28;20041;-62
2022/04/17 09:59:24;;;;;;;6.53;3.03;;;;;;;18.83;26.27;102668.88;5056007;28;20117;-62
2022/04/17 10:01:52;;;;;;;5.18;3.13;;;;;;;19.06;25.06;102665.41;5056092;28;20064;-62
2022/04/17 10:04:20;;;;;;;4.43;3.20;;;;;;;19.09;26.32;102655.59;5055874;28;20032;-62
2022/04/17 10:07:06;;;;;;;5.30;3.25;;;;;;;19.48;26.28;102654.84;5055998;28;20021;-62
2022/04/17 10:09:32;;;;;;;7.07;3.28;;;;;;;20.01;24.98;102637.09;5056059;28;20037;-62
2022/04/17 10:11:59;;;;;;;5.75;3.42;;;;;;;19.98;24.57;102637.97;5056348;28;20028;-62
2022/04/17 10:14:28;;;;;;;4.40;3.03;;;;;;;19.84;24.87;102633.50;5055974;28;20025;-62
2022/04/17 10:16:55;;;;;;;4.55;3.30;;;;;;;20.06;24.16;102629.03;5055555;28;20040;-60
2022/04/17 10:19:21;;;;;;;4.07;2.70;;;;;;;20.17;22.77;102620.09;5055845;28;20124;-60
2022/04/17 10:21:47;;;;;;;4.97;2.80;;;;;;;20.12;23.13;102627.25;5055796;28;20033;-60
2022/04/17 10:24:16;;;;;;;5.53;2.75;;;;;;;20.05;23.34;102617.41;5055627;28;20039;-61
2022/04/17 10:26:49;;;;;;;4.38;2.92;;;;;;;19.97;23.89;102605.78;5055646;28;20074;-61
2022/04/17 10:29:20;;;;;;;5.00;3.00;;;;;;;19.74;24.25;102601.31;5055694;28;20107;-61
2022/04/17 10:32:26;;;;;;;4.47;3.25;;;;;;;20.00;25.61;102585.22;5055428;28;20040;-61
2022/04/17 10:35:12;;;;;;;6.05;3.17;;;;;;;20.62;24.15;102593.19;4955211;29;20070;-61
2022/04/17 10:37:57;;;;;;;4.95;3.20;;;;;;;20.90;23.05;102594.00;4955277;29;20043;-60
2022/04/17 10:40:23;;;;;;;7.22;3.05;;;;;;;21.10;22.08;102584.03;4955328;29;20047;-61
2022/04/17 10:43:02;;;;;;;5.15;3.00;;;;;;;21.59;24.05;102577.50;4939082;29;20057;-61
2022/04/17 10:45:31;;;;;;;5.32;2.90;;;;;;;21.97;21.78;102575.38;4955495;29;20039;-61
2022/04/17 10:48:05;;;;;;;4.70;2.80;;;;;;;21.77;22.40;102574.66;4955433;29;20039;-61
2022/04/17 10:50:51;;;;;;;4.40;2.75;;;;;;;21.28;21.55;102574.94;4954669;28;20035;-62
2022/04/17 10:53:27;;;;;;;4.57;3.03;;;;;;;20.99;23.59;102576.03;4954665;29;20074;-61
2022/04/17 10:56:09;;;;;;;8.52;2.80;;;;;;;21.02;21.79;102572.41;4955757;29;20043;-60
2022/04/17 10:58:50;;;;;;;7.22;3.10;;;;;;;20.79;22.05;102551.03;4955143;29;20484;-61
2022/04/17 11:01:15;;;;;;;4.55;2.70;;;;;;;21.07;22.12;102561.63;4955073;29;20045;-61
2022/04/17 11:03:53;;;;;;;4.95;2.78;;;;;;;21.36;21.53;102558.81;4955125;29;20134;-61
2022/04/17 11:06:31;;;;;;;7.65;2.95;;;;;;;21.33;20.23;102561.53;4955297;29;20043;-61
2022/04/17 11:09:08;;;;;;;5.30;2.90;;;;;;;21.75;20.52;102544.16;4955081;29;20031;-61
2022/04/17 11:11:43;;;;;;;4.25;2.83;;;;;;;21.65;21.38;102543.34;5001252;28;20503;-61
2022/04/17 11:14:16;;;;;;;3.60;2.50;;;;;;;21.62;19.58;102543.38;5054942;28;20025;-61
2022/04/17 11:16:56;;;;;;;5.20;3.00;;;;;;;21.49;20.52;102536.31;5054843;28;20116;-61
2022/04/17 11:19:23;;;;;;;5.65;3.00;;;;;;;21.43;21.28;102536.34;5054938;28;20035;-61
2022/04/17 11:21:53;;;;;;;4.85;3.00;;;;;;;21.77;21.41;102530.72;5054840;28;20027;-61
2022/04/17 11:24:20;;;;;;;5.28;3.22;;;;;;;22.04;21.76;102529.53;5054620;28;20383;-61
2022/04/17 11:26:58;;;;;;;7.45;3.50;;;;;;;22.08;20.87;102528.59;5054661;28;20478;-61
2022/04/17 11:29:41;;;;;;;5.60;3.60;;;;;;;22.44;20.18;102522.88;5036886;28;20552;-61
2022/04/17 11:32:18;;;;;;;6.85;2.90;;;;;;;22.88;19.70;102507.91;5054799;28;20051;-60
2022/04/17 11:34:52;;;;;;;4.05;2.88;;;;;;;23.05;18.81;102510.41;5053682;28;20157;-61
2022/04/17 11:37:26;;;;;;;4.05;2.80;;;;;;;22.81;18.47;102503.50;5054763;28;20021;-61
2022/04/17 11:39:53;;;;;;;3.97;2.80;;;;;;;22.83;18.49;102506.22;5054488;28;20471;-61
2022/04/17 11:42:19;;;;;;;6.03;3.05;;;;;;;22.94;17.88;102513.25;5054470;28;20474;-61
2022/04/17 11:44:47;;;;;;;5.90;3.05;;;;;;;23.39;17.38;102496.41;5054439;28;20025;-61
2022/04/17 11:47:15;;;;;;;5.80;3.13;;;;;;;23.39;17.43;102485.59;5054284;28;20028;-61
2022/04/17 11:49:41;;;;;;;5.55;3.05;;;;;;;23.65;17.03;102491.47;5054282;28;20040;-61